Time;durP1;ratioP1;P1;durP2;ratioP2;P2;SDS_P1;SDS_P2;PMS_P1;PMS_P2;Temp;Humidity;BMP_temperature;BMP_pressure;BME280_temperature;BME280_humidity;BME280_pressure;Samples;Min_cycle;Max_cycle;Signal;HPM_P1;HPM_P2
2022/01/30 21:48:17;;;;;;;1.47;1.20;;;1.10;68.40;;;;;;6305363;28;20821;-75
2022/01/30 21:51:23;;;;;;;1.90;1.27;;;1.00;69.30;;;;;;6308227;28;20273;-75
2022/01/30 21:54:28;;;;;;;2.20;1.40;;;1.00;70.00;;;;;;6299869;28;20294;-75
2022/01/30 21:57:33;;;;;;;1.00;1.00;;;1.00;70.20;;;;;;6306190;28;20274;-76
2022/01/30 22:00:39;;;;;;;1.30;1.20;;;0.90;69.80;;;;;;6282363;28;20274;-75
2022/01/30 22:03:46;;;;;;;2.00;1.13;;;0.90;69.80;;;;;;6293318;28;20294;-75
2022/01/30 22:06:51;;;;;;;1.10;1.10;;;0.90;70.10;;;;;;6307173;28;20294;-75
2022/01/30 22:09:57;;;;;;;1.20;1.20;;;0.90;70.60;;;;;;6286921;28;20303;-76
2022/01/30 22:13:03;;;;;;;1.10;1.10;;;0.90;70.30;;;;;;6287153;28;20288;-76
2022/01/30 22:16:11;;;;;;;3.33;1.50;;;0.90;71.00;;;;;;6307050;28;20271;-76
2022/01/30 22:19:18;;;;;;;1.00;1.00;;;0.90;71.40;;;;;;6291038;28;20476;-76
2022/01/30 22:22:24;;;;;;;1.67;1.20;;;0.80;71.30;;;;;;6282445;28;20274;-77
2022/01/30 22:25:29;;;;;;;1.20;1.17;;;0.90;71.60;;;;;;6283191;28;20273;-76
2022/01/30 22:28:34;;;;;;;1.63;1.30;;;0.80;71.50;;;;;;6277853;28;72252;-76
2022/01/30 22:31:40;;;;;;;1.30;1.20;;;0.80;72.00;;;;;;6275855;28;67176;-76
2022/01/30 22:34:47;;;;;;;1.37;1.20;;;0.80;71.80;;;;;;6281964;28;20451;-75
2022/01/30 22:37:52;;;;;;;1.97;1.40;;;0.80;72.20;;;;;;6281738;28;20293;-76
2022/01/30 22:40:59;;;;;;;1.13;1.13;;;0.80;72.20;;;;;;6281875;28;20582;-76
2022/01/30 22:44:06;;;;;;;2.80;1.40;;;0.80;71.60;;;;;;6281886;28;20306;-76
2022/01/30 22:47:12;;;;;;;1.20;1.10;;;0.80;71.50;;;;;;6282627;28;20306;-76
2022/01/30 22:50:19;;;;;;;1.10;1.10;;;0.80;71.90;;;;;;6281948;28;20298;-76
2022/01/30 22:53:24;;;;;;;2.33;1.73;;;0.80;71.80;;;;;;6280870;28;20292;-75
2022/01/30 22:56:29;;;;;;;2.67;2.33;;;0.80;72.40;;;;;;6281255;28;20282;-74
2022/01/30 22:59:35;;;;;;;1.40;1.13;;;0.80;72.40;;;;;;6264756;28;20296;-76
2022/01/30 23:02:41;;;;;;;1.30;1.30;;;0.70;72.20;;;;;;6264492;28;20272;-75
2022/01/30 23:05:47;;;;;;;3.40;1.20;;;0.70;72.20;;;;;;6265200;28;20273;-75
2022/01/30 23:08:53;;;;;;;1.60;1.13;;;0.70;72.20;;;;;;6264671;28;20464;-75
2022/01/30 23:11:59;;;;;;;2.07;1.43;;;0.70;73.00;;;;;;6264365;28;20270;-75
2022/01/30 23:15:06;;;;;;;1.80;1.23;;;0.70;72.60;;;;;;6264412;28;20299;-75
2022/01/30 23:18:22;;;;;;;1.10;1.10;;;0.70;72.70;;;;;;6263753;28;20311;-77
2022/01/30 23:21:28;;;;;;;2.57;1.30;;;0.70;73.00;;;;;;6264893;28;20270;-77
2022/01/30 23:24:34;;;;;;;1.13;1.13;;;0.70;72.20;;;;;;6264774;28;20300;-76
2022/01/30 23:27:42;;;;;;;1.20;1.20;;;0.70;72.30;;;;;;6263853;28;20298;-77
2022/01/30 23:30:48;;;;;;;1.13;1.13;;;0.70;72.50;;;;;;6265301;28;20291;-77
2022/01/30 23:33:54;;;;;;;1.40;1.30;;;0.70;72.70;;;;;;6264184;28;20385;-76
2022/01/30 23:37:00;;;;;;;1.10;1.10;;;0.70;73.90;;;;;;6264743;28;20279;-76
2022/01/30 23:40:08;;;;;;;1.43;1.10;;;0.60;74.20;;;;;;6263373;28;20298;-77
2022/01/30 23:43:16;;;;;;;1.10;1.10;;;0.60;73.30;;;;;;6263569;28;20301;-77
2022/01/30 23:46:22;;;;;;;1.20;1.20;;;0.50;73.40;;;;;;6263346;28;20309;-75
2022/01/30 23:49:27;;;;;;;3.10;1.20;;;0.60;73.40;;;;;;6263554;28;20615;-75
2022/01/30 23:52:34;;;;;;;2.90;1.50;;;0.60;73.60;;;;;;6263399;28;20270;-75
2022/01/30 23:55:40;;;;;;;1.40;1.10;;;0.60;73.30;;;;;;6264113;28;20272;-75
2022/01/30 23:58:45;;;;;;;1.23;1.23;;;0.60;73.70;;;;;;6262860;28;20310;-75
